Aviation Digital Data Service (ADDS)

Output produced by METARs form (1049 UTC 30 March 2017)
found at http://aviationweather.gov/adds/metars/
 
KAEX 301027Z 20006KT 7SM OVC005 19/18 A2978 RMK AO2 T01890183